SBOSBO AAL / EKYT
Speedbird OnlineSpeedbird Online AAL / EKYT

Aalborg Airport
09:44 16°C

Location Aalborg, Denmark
Latitude: 57.0927589138
Longitude: 9.84924316406
Local Time 09:44 on 18 Jul 2024
UTC +2 hours (Europe/Copenhagen)
Currency £1 equals DKK 8.87
METAR EKYT 180650Z AUTO 27014KT 9999 OVC021/// 16/12 Q1019
TAF TAF EKYT 180504Z 1806/1906 27015KT 9999 SCT020
Weather As Of 18 Jul 2024 09:44
Description Overcast clouds
Wind 32 km/h from West (270°)
Cloud Cover 100%
Precipitation Rain: none, Snow: none
Sunrise 04:53
Sunset 22:00
Web Airport Website | Wikipedia
Codes IATA: AAL
ICAO: EKYT
Altitude 3 Meter / 10 Feet
Distance 884 KM / 549 Miles
from London.
Runways
RunwayLength (m)Surface
08L2654Partial
08R2549Asphalt
26L2549Asphalt
26R2654Partial
Radio
TypeDescriptionFrequency
APPAPP123.975
ATISATIS120.475
MISCHANDLING131.55
TWRTWR118.3
Live ATC



Support Speedbird Online

© 2017-2024 Speedbird Online